createdAt,value
2022-12-01T00:02:33.202Z,14.8
2022-12-01T00:05:35.005Z,13.3
2022-12-01T00:08:36.967Z,13.1
2022-12-01T00:11:38.920Z,13
2022-12-01T00:14:40.882Z,15.5
2022-12-01T00:17:42.857Z,16.3
2022-12-01T00:20:44.804Z,16.1
2022-12-01T00:23:46.794Z,15.8
2022-12-01T00:26:48.747Z,16.5
2022-12-01T00:29:50.896Z,15.9
2022-12-01T00:32:52.676Z,16.8
2022-12-01T00:35:54.637Z,16.3
2022-12-01T00:38:56.615Z,15.9
2022-12-01T00:41:58.578Z,17.3
2022-12-01T00:45:00.591Z,18
2022-12-01T00:48:02.502Z,16.5
2022-12-01T00:51:04.492Z,16.9
2022-12-01T00:54:06.436Z,18.7
2022-12-01T00:57:08.420Z,18.1
2022-12-01T01:00:10.373Z,18.6
2022-12-01T01:03:12.353Z,17.2
2022-12-01T01:06:14.311Z,16.1
2022-12-01T01:09:16.292Z,19.5
2022-12-01T01:12:18.261Z,17.4
2022-12-01T01:15:20.223Z,19.6
2022-12-01T01:18:22.187Z,16.1
2022-12-01T01:21:24.419Z,19.1
2022-12-01T01:24:26.107Z,16.2
2022-12-01T01:27:28.091Z,18.3
2022-12-01T01:30:30.083Z,20.7
2022-12-01T01:33:32.009Z,17.2
2022-12-01T01:36:33.972Z,16.5
2022-12-01T01:39:35.969Z,17.5
2022-12-01T01:42:37.914Z,17.1
2022-12-01T01:45:39.937Z,17.1
2022-12-01T01:48:41.835Z,18.3
2022-12-01T01:51:43.809Z,18.8
2022-12-01T01:54:45.766Z,16.6
2022-12-01T01:57:47.716Z,18.2
2022-12-01T02:00:49.749Z,16.8
2022-12-01T02:03:51.648Z,15.6
2022-12-01T02:06:53.612Z,17.9
2022-12-01T02:09:55.572Z,16.9
2022-12-01T02:12:57.549Z,17.7
2022-12-01T02:15:59.514Z,16.7
2022-12-01T02:19:01.492Z,15.9
2022-12-01T02:22:03.466Z,18
2022-12-01T02:25:05.427Z,16.6
2022-12-01T02:28:07.384Z,16.2
2022-12-01T02:31:09.385Z,17.9
2022-12-01T02:34:11.300Z,16.1
2022-12-01T02:37:13.269Z,17.5
2022-12-01T02:40:15.228Z,17.3
2022-12-01T02:43:17.198Z,17.4
2022-12-01T02:46:19.235Z,17.6
2022-12-01T02:49:21.125Z,17.9
2022-12-01T02:52:23.100Z,17.3
2022-12-01T02:55:25.069Z,18.5
2022-12-01T02:58:27.018Z,17.5
2022-12-01T03:01:29.054Z,17.6
2022-12-01T03:04:30.944Z,17.9
2022-12-01T03:07:32.954Z,17.5
2022-12-01T03:10:34.877Z,16.3
2022-12-01T03:13:36.825Z,17.6
2022-12-01T03:16:38.782Z,17.2
2022-12-01T03:19:40.749Z,15.9
2022-12-01T03:22:42.715Z,17.9
2022-12-01T03:25:44.664Z,17.5
2022-12-01T03:28:46.616Z,17.5
2022-12-01T03:31:48.652Z,17.3
2022-12-01T03:34:50.547Z,17.2
2022-12-01T03:37:52.526Z,16.6
2022-12-01T03:40:54.470Z,15.1
2022-12-01T03:43:56.469Z,18.4
2022-12-01T03:46:58.436Z,16.1
2022-12-01T03:50:00.399Z,15.4
2022-12-01T03:53:02.356Z,16.4
2022-12-01T03:56:04.321Z,16.2
2022-12-01T03:59:06.283Z,18
2022-12-01T04:02:08.272Z,16.8
2022-12-01T04:05:10.223Z,15.3
2022-12-01T04:08:12.207Z,15.8
2022-12-01T04:11:14.143Z,17.3
2022-12-01T04:14:16.096Z,17.2
2022-12-01T04:17:18.067Z,18
2022-12-01T04:20:20.035Z,17.4
2022-12-01T04:23:22.006Z,16.5
2022-12-01T04:26:23.959Z,18
2022-12-01T04:29:25.905Z,16.9
2022-12-01T04:32:27.899Z,17.5
2022-12-01T04:35:29.865Z,18.3
2022-12-01T04:38:31.855Z,15.2
2022-12-01T04:41:33.797Z,16.1
2022-12-01T04:44:35.763Z,14.8
2022-12-01T04:47:37.717Z,15.5
2022-12-01T04:50:39.707Z,16.9
2022-12-01T04:53:41.699Z,15.9
2022-12-01T04:56:43.673Z,15.9
2022-12-01T04:59:45.621Z,17
2022-12-01T05:02:47.595Z,18.7
2022-12-01T05:05:49.544Z,18.6
2022-12-01T05:08:51.508Z,17.9
2022-12-01T05:11:53.466Z,16.6
2022-12-01T05:14:55.447Z,16.9
2022-12-01T05:17:57.396Z,14.4
2022-12-01T05:20:59.371Z,15.4
2022-12-01T05:24:01.331Z,15.4
2022-12-01T05:27:03.321Z,14.7
2022-12-01T05:30:05.260Z,16
2022-12-01T05:33:07.250Z,15.7
2022-12-01T05:36:09.228Z,15.5
2022-12-01T05:39:11.184Z,17.3
2022-12-01T05:42:13.108Z,16.5
2022-12-01T05:45:15.088Z,16.6
2022-12-01T05:48:17.121Z,17
2022-12-01T05:51:19.020Z,17.2
2022-12-01T05:54:20.967Z,16.8
2022-12-01T05:57:22.941Z,18.1
2022-12-01T06:00:24.903Z,16.9
2022-12-01T06:03:26.873Z,17.2
2022-12-01T06:06:28.820Z,17.4
2022-12-01T06:09:30.820Z,15.3
2022-12-01T06:12:32.771Z,18.4
2022-12-01T06:15:34.730Z,15.7
2022-12-01T06:18:36.685Z,16.8
2022-12-01T06:21:38.646Z,15.3
2022-12-01T06:24:40.617Z,17
2022-12-01T06:27:42.578Z,16
2022-12-01T06:30:44.541Z,15.1
2022-12-01T06:33:46.570Z,15.9
2022-12-01T06:36:48.448Z,15.2
2022-12-01T06:39:50.637Z,16.2
2022-12-01T06:42:52.391Z,15.4
2022-12-01T06:45:59.597Z,16.1
2022-12-01T06:48:56.596Z,14.1
2022-12-01T06:52:00.737Z,16
2022-12-01T06:55:00.248Z,15.6
2022-12-01T06:58:02.204Z,13.5
2022-12-01T07:01:04.203Z,15.2
2022-12-01T07:04:06.152Z,14.7
2022-12-01T07:07:08.155Z,16.6
2022-12-01T07:10:10.096Z,16.9
2022-12-01T07:13:12.046Z,16.2
2022-12-01T07:16:14.024Z,15
2022-12-01T07:19:15.975Z,15.7
2022-12-01T07:22:17.945Z,15.3
2022-12-01T07:25:19.937Z,15.2
2022-12-01T07:28:21.878Z,14.9
2022-12-01T07:31:23.894Z,15.7
2022-12-01T07:34:25.821Z,15.8
2022-12-01T07:37:27.770Z,14.2
2022-12-01T07:40:29.740Z,15.1
2022-12-01T07:43:31.712Z,13.9
2022-12-01T07:46:33.795Z,14.4
2022-12-01T07:49:35.651Z,14.7
2022-12-01T07:52:37.630Z,14.1
2022-12-01T07:55:39.568Z,14.1
2022-12-01T07:58:41.539Z,13.8
2022-12-01T08:01:44.813Z,14.7
2022-12-01T08:04:45.491Z,12.4
2022-12-01T08:07:47.493Z,15.1
2022-12-01T08:10:49.403Z,14
2022-12-01T08:13:51.381Z,12.5
2022-12-01T08:16:53.336Z,13.7
2022-12-01T08:19:55.300Z,14.1
2022-12-01T08:22:57.271Z,14.1
2022-12-01T08:25:59.243Z,13.1
2022-12-01T08:29:01.219Z,13.6
2022-12-01T08:32:03.170Z,12.5
2022-12-01T08:35:05.133Z,12.8
2022-12-01T08:38:07.112Z,13.8
2022-12-01T08:41:09.105Z,11.1
2022-12-01T08:44:11.132Z,13.3
2022-12-01T08:47:17.204Z,13.5
2022-12-01T08:50:14.982Z,12
2022-12-01T08:53:16.951Z,12.5
2022-12-01T08:56:18.927Z,14.6
2022-12-01T08:59:20.884Z,12.1
2022-12-01T09:02:22.904Z,14.1
2022-12-01T09:05:24.810Z,14.5
2022-12-01T09:08:26.765Z,14.1
2022-12-01T09:11:28.736Z,12.8
2022-12-01T09:14:30.693Z,13.1
2022-12-01T09:17:32.678Z,13.6
2022-12-01T09:20:34.655Z,12.7
2022-12-01T09:23:36.647Z,13.1
2022-12-01T09:26:38.626Z,13.3
2022-12-01T09:29:40.594Z,12.6
2022-12-01T09:32:42.558Z,12.8
2022-12-01T09:35:44.505Z,13.1
2022-12-01T09:38:46.487Z,11.6
2022-12-01T09:41:48.478Z,11.4
2022-12-01T09:44:50.693Z,11.8
2022-12-01T09:47:52.411Z,12.6
2022-12-01T09:50:54.359Z,11.3
2022-12-01T09:53:56.833Z,12.2
2022-12-01T09:56:58.286Z,12.6
2022-12-01T10:00:00.249Z,13.4
2022-12-01T10:03:02.229Z,11.3
2022-12-01T10:06:27.975Z,13
2022-12-01T10:09:06.155Z,12.9
2022-12-01T10:12:08.116Z,12.4
2022-12-01T10:15:10.114Z,12.8
2022-12-01T10:18:12.073Z,13
2022-12-01T10:21:14.120Z,13.1
2022-12-01T10:24:15.985Z,12.7
2022-12-01T10:27:17.959Z,12.2
2022-12-01T10:30:19.915Z,11.7
2022-12-01T10:33:21.871Z,13.1
2022-12-01T10:36:23.831Z,13.1
2022-12-01T10:39:25.804Z,13.1
2022-12-01T10:42:27.755Z,13.6
2022-12-01T10:45:29.786Z,12.8
2022-12-01T10:48:31.710Z,12.6
2022-12-01T10:51:33.673Z,12.7
2022-12-01T10:54:35.629Z,12.8
2022-12-01T10:57:37.616Z,12.2
2022-12-01T11:00:59.411Z,13.3
2022-12-01T11:03:41.575Z,12.9
2022-12-01T11:06:43.478Z,13
2022-12-01T11:09:45.465Z,13.6
2022-12-01T11:12:47.413Z,12.7
2022-12-01T11:15:49.370Z,12.4
2022-12-01T11:18:51.370Z,13.8
2022-12-01T11:21:53.301Z,13.1
2022-12-01T11:24:55.293Z,13.5
2022-12-01T11:27:57.229Z,12.9
2022-12-01T11:30:59.208Z,12
2022-12-01T11:34:01.191Z,13.2
2022-12-01T11:37:03.130Z,14.1
2022-12-01T11:40:05.933Z,12.5
2022-12-01T11:43:07.068Z,14.4
2022-12-01T11:46:09.077Z,13.1
2022-12-01T11:49:10.974Z,14.2
2022-12-01T11:52:12.951Z,14.9
2022-12-01T11:55:14.895Z,13.9
2022-12-01T11:58:16.913Z,12.8
2022-12-01T12:01:21.899Z,13.1
2022-12-01T12:04:20.806Z,13.6
2022-12-01T12:07:22.815Z,13.4
2022-12-01T12:10:24.790Z,13.5
2022-12-01T12:13:26.707Z,14.9
2022-12-01T12:16:30.266Z,14.2
2022-12-01T12:19:34.199Z,13.9
2022-12-01T12:22:32.623Z,13.9
2022-12-01T12:25:34.566Z,14
2022-12-01T12:28:36.513Z,14.5
2022-12-01T12:31:38.473Z,13.8
2022-12-01T12:34:40.467Z,13.7
2022-12-01T12:37:42.402Z,14.5
2022-12-01T12:40:44.368Z,13.9
2022-12-01T12:43:46.330Z,14.1
2022-12-01T12:46:48.346Z,14.5
2022-12-01T12:49:50.534Z,13.3
2022-12-01T12:52:52.225Z,13.2
2022-12-01T12:55:54.204Z,13
2022-12-01T12:58:56.145Z,13.6
2022-12-01T13:01:58.163Z,13.7
2022-12-01T13:05:00.096Z,13.6
2022-12-01T13:08:02.103Z,12.6
2022-12-01T13:11:04.046Z,13.1
2022-12-01T13:14:05.953Z,12
2022-12-01T13:17:07.955Z,13.5
2022-12-01T13:20:09.918Z,13.2
2022-12-01T13:23:11.876Z,13.6
2022-12-01T13:26:13.834Z,12.7
2022-12-01T13:29:15.800Z,13.4
2022-12-01T13:32:17.772Z,13
2022-12-01T13:35:19.731Z,13.3
2022-12-01T13:38:21.691Z,13
2022-12-01T13:41:23.674Z,13.2
2022-12-01T13:44:25.643Z,13.1
2022-12-01T13:47:27.633Z,12.9
2022-12-01T13:50:29.596Z,13.6
2022-12-01T13:53:31.525Z,12.8
2022-12-01T13:56:37.485Z,13.6
2022-12-01T13:59:35.467Z,12.8
2022-12-01T14:02:37.543Z,14.1
2022-12-01T14:05:39.399Z,14.3
2022-12-01T14:08:41.379Z,12.8
2022-12-01T14:11:43.386Z,13.8
2022-12-01T14:14:45.294Z,14.1
2022-12-01T14:17:47.282Z,14
2022-12-01T14:20:49.227Z,14.2
2022-12-01T14:23:51.195Z,13.9
2022-12-01T14:26:53.175Z,13.3
2022-12-01T14:29:55.147Z,13.9
2022-12-01T14:32:57.102Z,13.1
2022-12-01T14:35:59.071Z,13.1
2022-12-01T14:39:01.044Z,12.9
2022-12-01T14:42:03.014Z,12.2
2022-12-01T14:45:05.080Z,13
2022-12-01T14:48:06.956Z,13
2022-12-01T14:51:08.933Z,11.7
2022-12-01T14:54:10.880Z,14.1
2022-12-01T14:57:16.629Z,13.4
2022-12-01T15:00:14.879Z,13.1
2022-12-01T15:03:16.785Z,14.1
2022-12-01T15:06:18.745Z,13.8
2022-12-01T15:09:34.321Z,15.2
2022-12-01T15:12:22.641Z,13.4
2022-12-01T15:15:24.610Z,14.2
2022-12-01T15:18:26.583Z,13.5
2022-12-01T15:21:28.544Z,12.9
2022-12-01T15:24:30.508Z,14.4
2022-12-01T15:27:32.479Z,12.8
2022-12-01T15:30:34.461Z,13.7
2022-12-01T15:33:37.305Z,13.5
2022-12-01T15:36:38.390Z,15.1
2022-12-01T15:39:40.354Z,12.9
2022-12-01T15:42:42.315Z,13.7
2022-12-01T15:45:44.334Z,14.4
2022-12-01T15:48:46.239Z,13.8
2022-12-01T15:51:48.208Z,13.7
2022-12-01T15:54:50.347Z,13.2
2022-12-01T15:57:52.130Z,13.9
2022-12-01T16:00:54.138Z,13.8
2022-12-01T16:03:56.070Z,13.6
2022-12-01T16:06:58.028Z,12.9
2022-12-01T16:09:59.996Z,14.1
2022-12-01T16:13:01.970Z,13.4
2022-12-01T16:16:03.936Z,14.4
2022-12-01T16:19:05.924Z,13.6
2022-12-01T16:22:07.872Z,13.9
2022-12-01T16:25:09.834Z,14.4
2022-12-01T16:28:11.790Z,14.2
2022-12-01T16:31:15.321Z,13.5
2022-12-01T16:34:38.276Z,13.9
2022-12-01T16:37:17.693Z,15.3
2022-12-01T16:40:19.658Z,15.2
2022-12-01T16:43:21.622Z,14.6
2022-12-01T16:46:23.658Z,14.5
2022-12-01T16:49:25.545Z,15.2
2022-12-01T16:52:44.470Z,17.1
2022-12-01T16:55:29.476Z,19.3
2022-12-01T16:58:31.444Z,16.6
2022-12-01T17:01:33.437Z,16.4
2022-12-01T17:04:35.374Z,18.7
2022-12-01T17:07:37.381Z,15.7
2022-12-01T17:10:39.305Z,17
2022-12-01T17:13:41.262Z,17.2
2022-12-01T17:16:43.235Z,16.8
2022-12-01T17:19:45.203Z,17.9
2022-12-01T17:22:47.157Z,16.8
2022-12-01T17:25:49.111Z,17.9
2022-12-01T17:28:51.058Z,16.8
2022-12-01T17:31:53.012Z,18.3
2022-12-01T17:34:54.980Z,17.3
2022-12-01T17:37:56.948Z,15.7
2022-12-01T17:40:58.911Z,17.2
2022-12-01T17:44:01.022Z,16.4
2022-12-01T17:47:02.996Z,16.1
2022-12-01T17:50:04.962Z,16.7
2022-12-01T17:53:06.898Z,19.4
2022-12-01T17:56:08.874Z,17.5
2022-12-01T17:59:10.826Z,18.6
2022-12-01T18:02:12.872Z,20.7
2022-12-01T18:05:14.806Z,19.2
2022-12-01T18:08:16.714Z,16.2
2022-12-01T18:11:18.691Z,18.5
2022-12-01T18:14:20.687Z,17.8
2022-12-01T18:17:22.654Z,18.1
2022-12-01T18:20:24.594Z,17.7
2022-12-01T18:23:26.563Z,19.7
2022-12-01T18:26:28.525Z,19.4
2022-12-01T18:29:30.478Z,18.4
2022-12-01T18:32:32.463Z,16.8
2022-12-01T18:35:34.423Z,19.5
2022-12-01T18:38:36.404Z,17.7
2022-12-01T18:41:38.363Z,17.3
2022-12-01T18:44:40.332Z,17.2
2022-12-01T18:47:42.291Z,16.7
2022-12-01T18:50:44.257Z,16.9
2022-12-01T18:53:46.228Z,19.2
2022-12-01T18:56:48.200Z,17.1
2022-12-01T18:59:50.170Z,18.4
2022-12-01T19:02:52.145Z,18
2022-12-01T19:05:54.082Z,18.7
2022-12-01T19:08:56.040Z,19
2022-12-01T19:11:58.169Z,17.4
2022-12-01T19:14:59.987Z,18.4
2022-12-01T19:18:02.108Z,18.5
2022-12-01T19:21:03.908Z,15.2
2022-12-01T19:24:05.864Z,17.6
2022-12-01T19:27:07.834Z,18.7
2022-12-01T19:30:09.794Z,18.6
2022-12-01T19:33:11.770Z,20.4
2022-12-01T19:36:13.726Z,18.5
2022-12-01T19:39:15.712Z,20.4
2022-12-01T19:42:17.686Z,18.9
2022-12-01T19:45:19.617Z,20.4
2022-12-01T19:48:21.617Z,19.2
2022-12-01T19:51:23.574Z,18.7
2022-12-01T19:54:25.535Z,19
2022-12-01T19:57:27.521Z,20
2022-12-01T20:00:29.509Z,19.6
2022-12-01T20:03:31.464Z,18.8
2022-12-01T20:06:33.432Z,18.5
2022-12-01T20:09:35.405Z,18.7
2022-12-01T20:12:37.405Z,18.9
2022-12-01T20:15:39.311Z,20.2
2022-12-01T20:18:41.280Z,18.7
2022-12-01T20:21:43.301Z,18
2022-12-01T20:24:45.205Z,18.6
2022-12-01T20:27:47.195Z,20.4
2022-12-01T20:30:49.162Z,17.4
2022-12-01T20:33:51.106Z,18.6
2022-12-01T20:36:53.092Z,19.9
2022-12-01T20:39:55.042Z,18.2
2022-12-01T20:42:57.052Z,19.3
2022-12-01T20:45:59.214Z,17
2022-12-01T20:49:00.953Z,16.1
2022-12-01T20:52:02.904Z,16.7
2022-12-01T20:55:04.889Z,20.1
2022-12-01T20:58:06.854Z,18.7
2022-12-01T21:01:08.851Z,19.9
2022-12-01T21:04:10.776Z,17.9
2022-12-01T21:07:12.727Z,19
2022-12-01T21:10:18.546Z,18.3
2022-12-01T21:13:16.653Z,17.8
2022-12-01T21:16:18.622Z,18.6
2022-12-01T21:19:20.558Z,20
2022-12-01T21:22:22.520Z,18.5
2022-12-01T21:25:24.529Z,19.5
2022-12-01T21:28:26.448Z,18.7
2022-12-01T21:31:28.473Z,17.6
2022-12-01T21:34:30.399Z,19
2022-12-01T21:37:32.341Z,19.8
2022-12-01T21:40:34.303Z,17.2
2022-12-01T21:43:38.344Z,20
2022-12-01T21:46:38.242Z,17.8
2022-12-01T21:49:40.197Z,21.2
2022-12-01T21:52:42.148Z,17.1
2022-12-01T21:55:44.106Z,17.3
2022-12-01T21:58:46.087Z,18.4
2022-12-01T22:01:48.073Z,18
2022-12-01T22:04:50.339Z,17.5
2022-12-01T22:07:51.984Z,17.7
2022-12-01T22:10:53.950Z,16.6
2022-12-01T22:13:55.917Z,16.9
2022-12-01T22:16:57.904Z,16.8
2022-12-01T22:19:59.858Z,18.7
2022-12-01T22:23:01.860Z,17.4
2022-12-01T22:26:03.786Z,17.9
2022-12-01T22:29:05.744Z,18.9
2022-12-01T22:32:07.722Z,17.6
2022-12-01T22:35:09.693Z,16.2
2022-12-01T22:38:11.624Z,17.8
2022-12-01T22:41:13.599Z,18.2
2022-12-01T22:44:15.604Z,18.9
2022-12-01T22:47:17.551Z,18.7
2022-12-01T22:50:19.503Z,15.4
2022-12-01T22:53:21.463Z,17.2
2022-12-01T22:56:23.435Z,17.6
2022-12-01T22:59:25.389Z,19
2022-12-01T23:02:27.470Z,16.7
2022-12-01T23:05:29.310Z,16.7
2022-12-01T23:08:31.274Z,15.6
2022-12-01T23:11:33.261Z,14.9
2022-12-01T23:14:35.201Z,16.1
2022-12-01T23:17:37.189Z,16.3
2022-12-01T23:20:39.140Z,18.3
2022-12-01T23:23:41.132Z,15.2
2022-12-01T23:26:43.059Z,16.7
2022-12-01T23:29:45.012Z,16.8
2022-12-01T23:32:47.005Z,16
2022-12-01T23:35:48.981Z,17.2
2022-12-01T23:38:50.928Z,16.3
2022-12-01T23:41:52.905Z,14.4
2022-12-01T23:44:54.851Z,16.8
2022-12-01T23:47:56.816Z,15.1
2022-12-01T23:50:58.770Z,14.4
2022-12-01T23:54:00.749Z,13.7
2022-12-01T23:57:02.726Z,15.5
